Time;durP1;ratioP1;P1;durP2;ratioP2;P2;SDS_P1;SDS_P2;PMS_P1;PMS_P2;Temp;Humidity;BMP_temperature;BMP_pressure;BME280_temperature;BME280_humidity;BME280_pressure;Samples;Min_cycle;Max_cycle;Signal;HPM_P1;HPM_P2
2022/03/18 00:02:05;;;;;;;0.00;0.00;;;3.10;99.90;;;;;;5052675;28;20133;-83
2022/03/18 00:04:30;;;;;;;0.00;0.00;;;3.10;99.90;;;;;;5053119;28;20042;-82
2022/03/18 00:06:56;;;;;;;0.20;0.20;;;3.00;99.90;;;;;;5052489;28;20037;-82
2022/03/18 00:09:22;;;;;;;0.00;0.00;;;3.00;99.90;;;;;;5053021;28;20095;-82
2022/03/18 00:11:48;;;;;;;0.00;0.00;;;3.00;99.90;;;;;;5036235;28;20068;-82
2022/03/18 00:14:14;;;;;;;0.00;0.00;;;3.00;99.90;;;;;;5036308;28;20491;-83
2022/03/18 00:16:40;;;;;;;0.38;0.35;;;2.90;99.90;;;;;;5053374;28;20052;-82
2022/03/18 00:19:06;;;;;;;0.00;0.00;;;2.90;99.90;;;;;;5053192;28;20045;-83
2022/03/18 00:21:34;;;;;;;0.00;0.00;;;2.90;99.90;;;;;;5035888;28;20489;-82
2022/03/18 00:24:00;;;;;;;0.00;0.00;;;2.80;99.90;;;;;;5035866;28;20386;-82
2022/03/18 00:26:26;;;;;;;0.00;0.00;;;2.80;99.90;;;;;;5052723;28;20091;-82
2022/03/18 00:28:52;;;;;;;0.00;0.00;;;2.70;99.90;;;;;;5052643;28;20492;-82
2022/03/18 00:31:17;;;;;;;0.32;0.00;;;2.70;99.90;;;;;;5036162;28;20043;-82
2022/03/18 00:33:43;;;;;;;5.07;0.10;;;2.70;99.90;;;;;;5052436;28;20067;-83
2022/03/18 00:36:09;;;;;;;0.00;0.00;;;2.70;99.90;;;;;;5052701;28;20098;-82
2022/03/18 00:38:34;;;;;;;0.10;0.10;;;2.70;99.90;;;;;;5053324;28;20559;-82
2022/03/18 00:41:01;;;;;;;0.00;0.00;;;2.70;99.90;;;;;;5035976;28;20037;-82
2022/03/18 00:43:27;;;;;;;0.00;0.00;;;2.60;99.90;;;;;;5052079;28;20053;-82
2022/03/18 00:45:52;;;;;;;0.30;0.30;;;2.60;99.90;;;;;;5052745;28;20449;-82
2022/03/18 00:53:46;;;;;;;0.10;0.10;;;2.90;99.90;;;;;;5052591;28;20060;-82
2022/03/18 00:56:12;;;;;;;0.00;0.00;;;2.60;99.90;;;;;;5052396;28;20139;-82
2022/03/18 00:58:38;;;;;;;0.00;0.00;;;2.60;99.90;;;;;;5036320;28;20135;-82
2022/03/18 01:01:04;;;;;;;0.00;0.00;;;2.60;99.90;;;;;;5052053;28;20131;-82
2022/03/18 01:03:30;;;;;;;0.00;0.00;;;2.60;99.90;;;;;;5036231;28;20045;-82
2022/03/18 01:05:55;;;;;;;0.00;0.00;;;2.50;99.90;;;;;;5052691;28;20477;-82
2022/03/18 01:08:21;;;;;;;0.00;0.00;;;2.50;99.90;;;;;;5035720;28;20059;-82
2022/03/18 01:10:48;;;;;;;0.00;0.00;;;2.40;99.90;;;;;;5052526;28;20052;-83
2022/03/18 01:13:14;;;;;;;0.00;0.00;;;2.40;99.90;;;;;;5052254;28;20225;-82
2022/03/18 01:15:40;;;;;;;0.00;0.00;;;2.40;99.90;;;;;;5052326;28;20436;-82
2022/03/18 01:18:05;;;;;;;0.00;0.00;;;2.30;99.90;;;;;;5055518;28;20440;-82
2022/03/18 01:20:31;;;;;;;0.00;0.00;;;2.40;99.90;;;;;;5056144;28;20509;-83
2022/03/18 01:22:57;;;;;;;0.00;0.00;;;2.60;99.90;;;;;;5056295;28;20048;-82
2022/03/18 01:25:22;;;;;;;0.00;0.00;;;2.50;99.90;;;;;;5056922;28;20133;-83
2022/03/18 01:27:48;;;;;;;0.10;0.08;;;2.30;99.90;;;;;;5039486;28;20061;-82
2022/03/18 01:30:14;;;;;;;0.00;0.00;;;2.20;99.90;;;;;;5039060;28;20060;-82
2022/03/18 01:32:40;;;;;;;0.00;0.00;;;2.30;99.90;;;;;;5056476;28;20056;-82
2022/03/18 01:35:07;;;;;;;0.00;0.00;;;2.30;99.90;;;;;;5057055;28;20048;-82
2022/03/18 01:37:32;;;;;;;0.10;0.10;;;2.30;99.90;;;;;;5039359;28;20136;-82
2022/03/18 01:39:59;;;;;;;0.00;0.00;;;2.30;99.90;;;;;;5056031;28;20127;-82
2022/03/18 01:42:25;;;;;;;0.10;0.05;;;2.30;99.90;;;;;;5038856;28;20063;-82
2022/03/18 01:44:51;;;;;;;0.15;0.15;;;2.30;99.90;;;;;;5038991;28;20493;-82
2022/03/18 01:47:18;;;;;;;0.00;0.00;;;2.20;99.90;;;;;;5039509;28;20045;-82
2022/03/18 01:49:43;;;;;;;0.00;0.00;;;2.30;99.90;;;;;;5039206;28;20044;-82
2022/03/18 01:52:11;;;;;;;0.88;0.00;;;2.30;99.90;;;;;;5055723;28;20055;-82
2022/03/18 01:54:49;;;;;;;0.00;0.00;;;2.20;99.90;;;;;;5039216;28;20056;-82
2022/03/18 01:57:21;;;;;;;0.00;0.00;;;2.30;99.90;;;;;;5038988;28;20095;-82
2022/03/18 01:59:48;;;;;;;0.00;0.00;;;2.20;99.90;;;;;;5038787;28;20045;-82
2022/03/18 02:02:15;;;;;;;0.00;0.00;;;2.20;99.90;;;;;;5038689;28;20311;-82
2022/03/18 02:04:41;;;;;;;0.00;0.00;;;2.20;99.90;;;;;;5039213;28;20139;-82
2022/03/18 02:07:08;;;;;;;0.80;0.20;;;2.20;99.90;;;;;;5038814;28;20049;-82
2022/03/18 02:09:35;;;;;;;0.00;0.00;;;2.20;99.90;;;;;;5055247;28;20082;-82
2022/03/18 02:12:02;;;;;;;0.00;0.00;;;2.20;99.90;;;;;;5038292;28;20456;-82
2022/03/18 02:14:51;;;;;;;0.00;0.00;;;2.20;99.90;;;;;;5039517;28;20056;-82
2022/03/18 02:17:18;;;;;;;0.00;0.00;;;2.20;99.90;;;;;;5055121;28;20140;-82
2022/03/18 02:19:46;;;;;;;0.00;0.00;;;2.10;99.90;;;;;;5055086;28;20052;-82
2022/03/18 02:22:19;;;;;;;0.10;0.10;;;2.10;99.90;;;;;;5038283;28;20045;-82
2022/03/18 02:24:46;;;;;;;0.00;0.00;;;2.10;99.90;;;;;;5038241;28;20052;-82
2022/03/18 02:27:12;;;;;;;0.00;0.00;;;2.20;99.90;;;;;;5038330;28;20459;-82
2022/03/18 02:29:39;;;;;;;0.00;0.00;;;2.10;99.90;;;;;;5054197;28;20561;-82
2022/03/18 02:32:07;;;;;;;0.00;0.00;;;2.10;99.90;;;;;;5038297;28;20051;-82
2022/03/18 02:34:34;;;;;;;0.52;0.17;;;2.00;99.90;;;;;;5038191;28;20088;-82
2022/03/18 02:37:00;;;;;;;0.00;0.00;;;2.10;99.90;;;;;;5038074;28;20136;-82
2022/03/18 02:39:26;;;;;;;0.00;0.00;;;2.10;99.90;;;;;;5038002;28;20503;-82
2022/03/18 02:41:52;;;;;;;0.13;0.13;;;2.10;99.90;;;;;;5037623;28;20088;-82
2022/03/18 02:44:18;;;;;;;0.00;0.00;;;2.00;99.90;;;;;;5054753;28;20064;-82
2022/03/18 02:46:44;;;;;;;0.10;0.00;;;2.10;99.90;;;;;;5054510;28;20037;-82
2022/03/18 02:49:10;;;;;;;0.00;0.00;;;2.10;99.90;;;;;;5054379;28;20090;-82
2022/03/18 02:51:37;;;;;;;0.00;0.00;;;2.10;99.90;;;;;;5054534;28;20171;-82
2022/03/18 02:54:07;;;;;;;0.00;0.00;;;2.10;99.90;;;;;;5054469;28;20503;-82
2022/03/18 02:56:34;;;;;;;0.00;0.00;;;2.10;99.90;;;;;;5054483;28;20048;-82
2022/03/18 02:59:00;;;;;;;0.10;0.10;;;2.10;99.90;;;;;;5054473;28;20071;-83
2022/03/18 03:01:27;;;;;;;0.00;0.00;;;2.10;99.90;;;;;;5054219;28;20037;-83
2022/03/18 03:03:54;;;;;;;0.00;0.00;;;2.10;99.90;;;;;;5054477;28;20045;-82
2022/03/18 03:09:03;;;;;;;0.00;0.00;;;2.40;99.90;;;;;;5054537;28;20114;-82
2022/03/18 03:11:29;;;;;;;0.00;0.00;;;2.00;99.90;;;;;;5054159;28;20485;-82
2022/03/18 03:13:55;;;;;;;0.00;0.00;;;1.90;99.90;;;;;;5053785;28;20045;-82
2022/03/18 03:16:20;;;;;;;0.00;0.00;;;1.90;99.90;;;;;;5053961;28;20086;-82
2022/03/18 03:18:46;;;;;;;0.00;0.00;;;1.90;99.90;;;;;;5037182;28;20091;-82
2022/03/18 03:21:13;;;;;;;0.00;0.00;;;1.90;99.90;;;;;;5053692;28;20037;-82
2022/03/18 03:23:39;;;;;;;0.00;0.00;;;1.90;99.90;;;;;;5054335;28;20049;-82
2022/03/18 03:26:05;;;;;;;0.00;0.00;;;1.90;99.90;;;;;;5037082;28;20064;-82
2022/03/18 03:28:30;;;;;;;0.00;0.00;;;1.90;99.90;;;;;;5053818;28;20489;-82
2022/03/18 03:30:56;;;;;;;0.00;0.00;;;1.90;99.90;;;;;;5053941;28;20059;-82
2022/03/18 03:33:22;;;;;;;0.00;0.00;;;1.80;99.90;;;;;;5053694;28;20048;-82
2022/03/18 03:35:47;;;;;;;0.00;0.00;;;1.80;99.90;;;;;;5053726;28;20376;-82
2022/03/18 03:38:14;;;;;;;0.00;0.00;;;1.80;99.90;;;;;;5037493;28;20424;-82
2022/03/18 03:40:41;;;;;;;0.00;0.00;;;1.80;99.90;;;;;;5052546;28;20052;-82
2022/03/18 03:43:08;;;;;;;0.00;0.00;;;1.90;99.90;;;;;;5036839;28;20404;-82
2022/03/18 03:45:36;;;;;;;0.00;0.00;;;1.80;99.90;;;;;;5053553;28;20077;-83
2022/03/18 03:48:02;;;;;;;0.00;0.00;;;1.70;99.90;;;;;;5037153;28;20437;-82
2022/03/18 03:50:28;;;;;;;0.00;0.00;;;1.70;99.90;;;;;;5037169;28;20041;-82
2022/03/18 03:52:54;;;;;;;0.00;0.00;;;1.80;99.90;;;;;;5053499;28;20182;-82
2022/03/18 03:55:20;;;;;;;0.00;0.00;;;1.70;99.90;;;;;;5053010;28;20044;-82
2022/03/18 03:57:45;;;;;;;1.75;0.52;;;1.70;99.90;;;;;;5053880;28;20045;-82
2022/03/18 04:00:12;;;;;;;0.00;0.00;;;1.70;99.90;;;;;;5036364;28;20512;-82
2022/03/18 04:02:38;;;;;;;0.00;0.00;;;1.60;99.90;;;;;;5036386;28;20493;-83
2022/03/18 04:05:08;;;;;;;0.00;0.00;;;1.60;99.90;;;;;;5052989;28;20227;-82
2022/03/18 04:07:35;;;;;;;0.30;0.13;;;1.60;99.90;;;;;;5053097;28;20065;-83
2022/03/18 04:10:01;;;;;;;0.00;0.00;;;1.70;99.90;;;;;;5036232;28;20057;-82
2022/03/18 04:12:27;;;;;;;0.00;0.00;;;1.60;99.90;;;;;;5036385;28;20139;-82
2022/03/18 04:14:53;;;;;;;0.00;0.00;;;1.70;99.90;;;;;;5036309;28;20140;-82
2022/03/18 04:17:18;;;;;;;0.00;0.00;;;1.70;99.90;;;;;;5036531;28;20061;-83
2022/03/18 04:19:44;;;;;;;0.00;0.00;;;1.70;99.90;;;;;;5053125;28;20047;-82
2022/03/18 04:22:10;;;;;;;0.10;0.00;;;1.70;99.90;;;;;;5052576;28;20091;-82
2022/03/18 04:24:36;;;;;;;0.38;0.38;;;1.70;99.90;;;;;;5035872;28;20072;-83
2022/03/18 04:27:02;;;;;;;0.10;0.05;;;1.70;99.90;;;;;;5036223;28;20047;-83
2022/03/18 04:29:28;;;;;;;0.15;0.15;;;1.70;99.90;;;;;;5052656;28;20049;-82
2022/03/18 04:31:54;;;;;;;0.00;0.00;;;1.70;99.90;;;;;;5036383;28;20051;-83
2022/03/18 04:34:20;;;;;;;0.00;0.00;;;1.70;99.90;;;;;;5053012;28;20468;-83
2022/03/18 04:36:45;;;;;;;0.00;0.00;;;1.70;99.90;;;;;;5053073;28;20497;-83
2022/03/18 04:39:11;;;;;;;0.38;0.38;;;1.70;99.90;;;;;;5052904;28;20052;-83
2022/03/18 04:41:37;;;;;;;0.00;0.00;;;1.70;99.90;;;;;;5036221;28;20052;-83
2022/03/18 04:44:03;;;;;;;0.00;0.00;;;1.70;99.90;;;;;;5052210;28;20405;-83
2022/03/18 04:46:31;;;;;;;0.05;0.05;;;1.60;99.90;;;;;;5052613;28;20049;-83
2022/03/18 04:48:58;;;;;;;0.57;0.40;;;1.60;99.90;;;;;;5035925;28;20060;-83
2022/03/18 04:51:25;;;;;;;0.00;0.00;;;1.60;99.90;;;;;;5052446;28;20045;-83
2022/03/18 04:53:51;;;;;;;0.13;0.13;;;1.60;99.90;;;;;;5052223;28;20044;-83
2022/03/18 04:59:00;;;;;;;0.00;0.00;;;1.70;99.90;;;;;;5052837;28;20049;-83
2022/03/18 05:01:26;;;;;;;0.00;0.00;;;1.60;99.90;;;;;;5053141;28;20075;-83
2022/03/18 05:03:52;;;;;;;0.00;0.00;;;1.60;99.90;;;;;;5052629;28;20048;-83
2022/03/18 05:06:18;;;;;;;0.00;0.00;;;1.60;99.90;;;;;;5036372;28;20140;-83
2022/03/18 05:08:44;;;;;;;0.00;0.00;;;1.50;99.90;;;;;;5052669;28;20049;-83
2022/03/18 05:11:12;;;;;;;0.00;0.00;;;1.50;99.90;;;;;;5035568;28;20060;-84
2022/03/18 05:13:38;;;;;;;0.00;0.00;;;1.50;99.90;;;;;;5035995;28;20092;-83
2022/03/18 05:16:05;;;;;;;0.75;0.20;;;1.50;99.90;;;;;;5052963;28;20053;-83
2022/03/18 05:18:30;;;;;;;0.28;0.28;;;1.40;99.90;;;;;;5035868;28;20055;-83
2022/03/18 05:20:56;;;;;;;0.08;0.08;;;1.40;99.90;;;;;;5035503;28;20509;-83
2022/03/18 05:23:23;;;;;;;0.00;0.00;;;1.40;99.90;;;;;;5052404;28;20041;-83
2022/03/18 05:25:48;;;;;;;0.00;0.00;;;1.40;99.90;;;;;;5035476;28;20043;-83
2022/03/18 05:28:14;;;;;;;0.90;0.20;;;1.40;99.90;;;;;;5052627;28;20412;-83
2022/03/18 05:30:40;;;;;;;0.00;0.00;;;1.40;99.90;;;;;;5035996;28;20556;-83
2022/03/18 05:33:06;;;;;;;0.00;0.00;;;1.30;99.90;;;;;;5052104;28;20095;-83
2022/03/18 05:35:32;;;;;;;0.00;0.00;;;1.30;99.90;;;;;;5052142;28;20049;-84
2022/03/18 05:37:58;;;;;;;0.10;0.00;;;1.30;99.90;;;;;;5052231;28;20049;-83
2022/03/18 05:40:24;;;;;;;0.00;0.00;;;1.30;99.90;;;;;;5052054;28;20109;-83
2022/03/18 05:42:50;;;;;;;0.00;0.00;;;1.40;99.90;;;;;;5051698;28;20481;-83
2022/03/18 05:45:16;;;;;;;0.00;0.00;;;1.40;99.90;;;;;;5035082;28;20088;-84
2022/03/18 05:47:42;;;;;;;0.00;0.00;;;1.50;99.90;;;;;;5051789;28;20054;-83
2022/03/18 05:50:08;;;;;;;0.08;0.08;;;1.40;99.90;;;;;;5051944;28;20072;-83
2022/03/18 05:52:35;;;;;;;0.00;0.00;;;1.40;99.90;;;;;;5035511;28;20119;-83
2022/03/18 05:55:01;;;;;;;0.00;0.00;;;1.40;99.90;;;;;;5035078;28;20064;-83
2022/03/18 05:57:28;;;;;;;0.00;0.00;;;1.40;99.90;;;;;;5035320;28;20053;-83
2022/03/18 05:59:55;;;;;;;0.00;0.00;;;1.40;99.90;;;;;;5034852;28;20048;-83
2022/03/18 06:02:21;;;;;;;0.30;0.30;;;1.40;99.90;;;;;;5034784;28;20152;-84
2022/03/18 06:04:47;;;;;;;0.00;0.00;;;1.40;99.90;;;;;;5036640;28;20064;-84
2022/03/18 06:07:13;;;;;;;0.00;0.00;;;1.40;99.90;;;;;;5055220;28;20045;-83
2022/03/18 06:12:32;;;;;;;0.00;0.00;;;1.50;99.90;;;;;;5055560;28;20106;-83
2022/03/18 06:14:58;;;;;;;0.00;0.00;;;1.50;99.90;;;;;;5056443;28;20049;-83
2022/03/18 06:17:23;;;;;;;0.00;0.00;;;1.60;99.90;;;;;;5055725;28;20037;-83
2022/03/18 06:19:49;;;;;;;0.00;0.00;;;1.70;99.90;;;;;;5038688;28;20377;-83
2022/03/18 06:22:14;;;;;;;0.05;0.00;;;1.90;99.90;;;;;;5055557;28;20099;-83
2022/03/18 06:24:40;;;;;;;0.00;0.00;;;1.90;99.90;;;;;;5055793;28;20037;-83
2022/03/18 06:27:07;;;;;;;0.00;0.00;;;1.90;99.90;;;;;;5056160;28;20076;-83
2022/03/18 06:29:32;;;;;;;0.10;0.10;;;2.00;99.90;;;;;;5038770;28;20059;-83
2022/03/18 06:31:59;;;;;;;0.00;0.00;;;2.00;99.90;;;;;;5038983;28;20606;-83
2022/03/18 06:34:25;;;;;;;0.00;0.00;;;2.10;99.90;;;;;;5055779;28;20048;-83
2022/03/18 06:36:53;;;;;;;0.03;0.03;;;2.10;99.90;;;;;;5038859;28;20484;-83
2022/03/18 06:39:22;;;;;;;0.35;0.05;;;2.10;99.90;;;;;;5055231;28;20048;-83
2022/03/18 06:41:48;;;;;;;0.00;0.00;;;2.20;99.90;;;;;;5038384;28;20048;-83
2022/03/18 06:44:14;;;;;;;1.77;0.10;;;2.40;99.90;;;;;;5038092;28;20071;-83
2022/03/18 06:46:40;;;;;;;0.00;0.00;;;2.50;99.90;;;;;;5038111;28;20037;-83
2022/03/18 06:49:07;;;;;;;1.70;0.03;;;2.70;99.90;;;;;;5037999;28;20064;-83
2022/03/18 06:51:34;;;;;;;0.32;0.08;;;3.00;99.90;;;;;;5054806;28;20060;-83
2022/03/18 06:54:00;;;;;;;0.17;0.00;;;3.30;99.90;;;;;;5037725;28;20053;-83
2022/03/18 06:56:27;;;;;;;0.95;0.55;;;3.80;99.90;;;;;;5038302;28;20052;-82
2022/03/18 06:58:53;;;;;;;0.68;0.25;;;4.30;99.90;;;;;;5038184;28;20049;-83
2022/03/18 07:01:21;;;;;;;0.00;0.00;;;4.80;99.90;;;;;;5038132;28;20044;-83
2022/03/18 07:03:47;;;;;;;0.00;0.00;;;5.20;99.90;;;;;;5054248;28;20128;-83
2022/03/18 07:06:13;;;;;;;0.20;0.20;;;5.70;99.90;;;;;;5054265;28;20136;-83
2022/03/18 07:08:39;;;;;;;0.13;0.13;;;6.10;99.90;;;;;;5054369;28;20131;-83
2022/03/18 07:11:05;;;;;;;0.00;0.00;;;6.50;99.90;;;;;;5054023;28;20140;-83
2022/03/18 07:13:31;;;;;;;0.00;0.00;;;7.10;99.90;;;;;;5054142;28;20088;-83
2022/03/18 07:17:54;;;;;;;0.17;0.17;;;7.70;99.90;;;;;;5054021;28;20053;-83
2022/03/18 07:18:43;;;;;;;2.78;0.22;;;8.20;99.90;;;;;;5054615;28;20085;-83
2022/03/18 07:21:08;;;;;;;0.17;0.17;;;8.80;99.90;;;;;;5037693;28;20083;-83
2022/03/18 07:23:34;;;;;;;0.30;0.30;;;9.10;99.90;;;;;;5037199;28;20057;-83
2022/03/18 07:26:00;;;;;;;0.00;0.00;;;9.20;99.90;;;;;;5053930;28;20049;-83
2022/03/18 07:28:25;;;;;;;0.00;0.00;;;9.30;99.90;;;;;;5036978;28;20061;-83
2022/03/18 07:30:51;;;;;;;0.22;0.05;;;9.80;99.90;;;;;;5053639;28;20056;-83
2022/03/18 07:33:17;;;;;;;0.00;0.00;;;10.40;99.90;;;;;;5054361;28;20048;-83
2022/03/18 07:35:43;;;;;;;0.20;0.20;;;11.00;99.90;;;;;;5053555;28;20048;-83
2022/03/18 07:38:09;;;;;;;1.08;0.10;;;11.30;99.90;;;;;;5053735;28;20049;-83
2022/03/18 07:40:38;;;;;;;0.00;0.00;;;11.70;99.30;;;;;;5036641;28;20111;-83
2022/03/18 07:43:05;;;;;;;0.00;0.00;;;11.80;98.40;;;;;;5053321;28;20059;-83
2022/03/18 07:45:33;;;;;;;0.00;0.00;;;11.70;97.20;;;;;;5053648;28;20500;-83
2022/03/18 07:48:01;;;;;;;2.60;0.57;;;11.70;96.90;;;;;;5054377;28;20045;-83
2022/03/18 07:50:29;;;;;;;0.10;0.10;;;11.80;96.70;;;;;;5036888;28;20139;-83
2022/03/18 07:52:57;;;;;;;0.10;0.10;;;11.90;96.80;;;;;;5036935;28;20059;-83
2022/03/18 07:55:25;;;;;;;0.10;0.00;;;11.70;95.20;;;;;;5036369;28;20044;-83
2022/03/18 07:57:51;;;;;;;0.10;0.08;;;11.80;95.40;;;;;;5053178;28;20041;-83
2022/03/18 08:00:17;;;;;;;0.10;0.10;;;11.60;94.40;;;;;;5053206;28;20060;-83
2022/03/18 08:02:45;;;;;;;0.77;0.32;;;11.50;95.80;;;;;;5036471;28;20053;-83
2022/03/18 08:05:12;;;;;;;0.00;0.00;;;11.20;94.60;;;;;;5036776;28;20056;-83
2022/03/18 08:07:38;;;;;;;0.10;0.10;;;10.90;96.10;;;;;;5036408;28;20088;-83
2022/03/18 08:10:05;;;;;;;0.52;0.25;;;10.80;96.80;;;;;;5052983;28;20044;-83
2022/03/18 08:12:32;;;;;;;0.00;0.00;;;10.60;97.30;;;;;;5036567;28;20099;-83
2022/03/18 08:14:59;;;;;;;0.70;0.00;;;10.40;97.20;;;;;;5036357;28;20123;-83
2022/03/18 08:17:26;;;;;;;0.03;0.03;;;10.20;99.80;;;;;;5052732;28;20408;-83
2022/03/18 08:19:52;;;;;;;0.15;0.15;;;10.00;99.90;;;;;;5052974;28;20051;-83
2022/03/18 08:22:21;;;;;;;0.00;0.00;;;9.90;99.90;;;;;;5035881;28;20060;-83
2022/03/18 08:24:48;;;;;;;0.10;0.00;;;10.00;99.90;;;;;;5052802;28;20049;-83
2022/03/18 08:27:14;;;;;;;0.15;0.00;;;10.20;99.90;;;;;;5052248;28;20064;-83
2022/03/18 08:29:39;;;;;;;0.10;0.10;;;10.30;99.90;;;;;;5052997;28;20049;-83
2022/03/18 08:32:07;;;;;;;0.22;0.05;;;10.50;99.90;;;;;;5052363;28;20049;-83
2022/03/18 08:34:33;;;;;;;0.13;0.13;;;10.50;99.90;;;;;;5036041;28;20493;-83
2022/03/18 08:36:58;;;;;;;6.07;0.32;;;10.60;99.90;;;;;;5052328;28;20148;-83
2022/03/18 08:39:24;;;;;;;0.08;0.00;;;10.60;99.90;;;;;;5052597;28;20053;-83
2022/03/18 08:41:50;;;;;;;1.80;0.55;;;10.50;99.90;;;;;;5051890;28;20124;-83
2022/03/18 08:44:19;;;;;;;0.20;0.10;;;10.50;99.90;;;;;;5052811;28;20049;-83
2022/03/18 08:46:49;;;;;;;0.35;0.22;;;10.50;99.90;;;;;;5035935;28;20049;-83
2022/03/18 08:49:15;;;;;;;0.43;0.43;;;10.60;99.90;;;;;;5052722;28;20048;-83
2022/03/18 08:51:41;;;;;;;7.40;1.33;;;10.60;99.90;;;;;;5036119;28;20053;-83
2022/03/18 08:54:06;;;;;;;0.15;0.10;;;10.50;99.90;;;;;;5035938;28;20044;-83
2022/03/18 08:56:32;;;;;;;0.32;0.32;;;10.70;99.90;;;;;;5035849;28;20048;-83
2022/03/18 08:58:58;;;;;;;0.57;0.57;;;11.00;99.90;;;;;;5036215;28;20105;-83
2022/03/18 09:01:25;;;;;;;0.63;0.10;;;11.30;99.90;;;;;;5035957;28;20139;-83
2022/03/18 09:03:53;;;;;;;0.47;0.20;;;11.60;99.90;;;;;;5052399;28;20134;-84
2022/03/18 09:06:19;;;;;;;0.80;0.35;;;12.00;99.90;;;;;;5035774;28;20049;-83
2022/03/18 09:08:45;;;;;;;0.00;0.00;;;12.10;99.90;;;;;;5035755;28;20044;-83
2022/03/18 09:11:11;;;;;;;1.65;0.30;;;12.00;99.70;;;;;;5052333;28;20103;-83
2022/03/18 09:13:37;;;;;;;1.05;0.20;;;12.00;99.50;;;;;;5052489;28;20378;-83
2022/03/18 09:16:04;;;;;;;0.20;0.20;;;11.90;99.40;;;;;;5052308;28;20088;-83
2022/03/18 09:18:30;;;;;;;0.13;0.13;;;12.10;99.90;;;;;;5052310;28;20140;-84
2022/03/18 09:20:56;;;;;;;0.17;0.17;;;12.10;99.50;;;;;;5052164;28;20103;-84
2022/03/18 09:23:22;;;;;;;0.00;0.00;;;12.60;99.90;;;;;;5052114;28;20081;-84
2022/03/18 09:25:47;;;;;;;0.00;0.00;;;12.90;99.40;;;;;;5051971;28;20056;-84
2022/03/18 09:28:13;;;;;;;0.63;0.28;;;12.70;98.20;;;;;;5052303;28;20558;-84
2022/03/18 09:30:39;;;;;;;0.10;0.00;;;12.80;98.90;;;;;;5052185;28;20396;-84
2022/03/18 09:33:05;;;;;;;0.10;0.10;;;12.90;99.00;;;;;;5052228;28;20045;-83
2022/03/18 09:35:31;;;;;;;0.17;0.17;;;13.00;98.10;;;;;;5052536;28;20388;-84
2022/03/18 09:37:56;;;;;;;0.10;0.10;;;12.90;97.70;;;;;;5052106;28;20548;-84
2022/03/18 09:40:22;;;;;;;0.20;0.20;;;13.10;99.40;;;;;;5054973;28;20041;-84
2022/03/18 09:43:09;;;;;;;0.45;0.13;;;13.40;99.00;;;;;;5055861;28;20048;-84
2022/03/18 09:45:37;;;;;;;0.00;0.00;;;13.50;98.10;;;;;;5056203;28;20135;-84
2022/03/18 09:48:06;;;;;;;0.65;0.10;;;13.20;96.90;;;;;;5055669;28;20132;-83
2022/03/18 09:50:32;;;;;;;0.63;0.63;;;13.20;97.90;;;;;;5055897;28;20051;-83
2022/03/18 09:52:58;;;;;;;0.47;0.15;;;13.00;97.50;;;;;;5056002;28;20435;-84
2022/03/18 09:55:24;;;;;;;0.85;0.35;;;13.10;98.30;;;;;;5055965;28;20099;-83
2022/03/18 09:57:49;;;;;;;1.05;0.20;;;13.30;98.00;;;;;;5055745;28;20044;-83
2022/03/18 10:00:15;;;;;;;0.00;0.00;;;13.30;98.00;;;;;;5038765;28;20045;-83
2022/03/18 10:02:41;;;;;;;0.10;0.10;;;13.50;97.90;;;;;;5055542;28;20051;-83
2022/03/18 10:05:14;;;;;;;6.38;0.60;;;14.00;97.80;;;;;;5055126;28;20428;-84
2022/03/18 10:07:52;;;;;;;0.32;0.30;;;14.00;97.20;;;;;;5055634;28;20051;-83
2022/03/18 10:10:17;;;;;;;0.60;0.57;;;13.80;96.00;;;;;;5039312;28;20065;-83
2022/03/18 10:12:47;;;;;;;0.10;0.10;;;13.80;96.80;;;;;;5039321;28;20053;-83
2022/03/18 10:15:20;;;;;;;1.13;0.65;;;14.00;96.50;;;;;;5038675;28;20048;-83
2022/03/18 10:17:49;;;;;;;0.10;0.00;;;14.00;96.50;;;;;;5055443;28;20041;-83
2022/03/18 10:20:34;;;;;;;0.00;0.00;;;14.40;96.70;;;;;;5038688;28;20055;-83
2022/03/18 10:23:15;;;;;;;;;;;14.50;96.60;;;;;;5055504;28;20064;-83
2022/03/18 10:25:50;;;;;;;1.30;0.50;;;14.80;96.40;;;;;;5054994;28;19921;-83
2022/03/18 10:28:30;;;;;;;1.80;0.40;;;14.90;94.50;;;;;;5038577;28;20076;-83
2022/03/18 10:31:08;;;;;;;3.05;0.28;;;14.90;94.70;;;;;;5055110;28;20103;-83
2022/03/18 10:39:25;;;;;;;0.17;0.17;;;14.70;94.20;;;;;;5055056;28;20071;-83
2022/03/18 10:41:51;;;;;;;0.20;0.20;;;14.50;94.10;;;;;;5054423;28;20048;-82
2022/03/18 10:44:17;;;;;;;0.10;0.10;;;14.70;94.60;;;;;;5055059;28;20053;-83
2022/03/18 10:46:43;;;;;;;0.10;0.00;;;15.00;94.00;;;;;;5054710;28;20067;-83
2022/03/18 10:49:10;;;;;;;0.00;0.00;;;15.00;93.50;;;;;;5054777;28;20493;-83
2022/03/18 10:51:38;;;;;;;1.73;0.63;;;15.10;93.70;;;;;;5054180;28;20128;-83
2022/03/18 10:54:04;;;;;;;3.90;1.00;;;15.30;92.70;;;;;;5037887;28;20167;-83
2022/03/18 10:56:54;;;;;;;0.30;0.17;;;15.10;92.30;;;;;;5054579;28;20045;-83
2022/03/18 10:59:21;;;;;;;0.95;0.95;;;15.20;92.90;;;;;;5038631;28;20037;-83
2022/03/18 11:01:47;;;;;;;0.93;0.63;;;15.00;92.60;;;;;;5053915;28;20512;-83
2022/03/18 11:04:15;;;;;;;0.35;0.35;;;15.20;93.10;;;;;;5055508;28;20044;-83
2022/03/18 11:06:42;;;;;;;1.05;0.30;;;15.10;92.80;;;;;;5054478;28;20052;-83
2022/03/18 11:09:11;;;;;;;0.13;0.13;;;15.10;92.50;;;;;;5054344;28;20045;-83
2022/03/18 11:11:40;;;;;;;0.00;0.00;;;15.40;92.60;;;;;;5053820;28;20052;-83
2022/03/18 11:14:10;;;;;;;0.57;0.57;;;15.50;92.50;;;;;;5037930;28;20064;-83
2022/03/18 11:16:39;;;;;;;0.15;0.15;;;15.40;91.60;;;;;;5054118;28;20081;-83
2022/03/18 11:19:15;;;;;;;0.10;0.08;;;15.50;91.90;;;;;;5053741;28;20049;-83
2022/03/18 11:21:42;;;;;;;0.00;0.00;;;15.70;90.80;;;;;;5037584;28;20053;-83
2022/03/18 11:24:11;;;;;;;0.00;0.00;;;15.90;90.90;;;;;;5053896;28;20045;-83
2022/03/18 11:26:46;;;;;;;0.13;0.08;;;16.10;90.60;;;;;;5054226;28;20041;-83
2022/03/18 11:29:14;;;;;;;1.33;0.43;;;16.20;90.40;;;;;;5054143;28;20052;-83
2022/03/18 11:31:40;;;;;;;0.40;0.10;;;16.20;90.80;;;;;;5037305;28;20041;-83
2022/03/18 11:34:17;;;;;;;0.10;0.10;;;16.20;89.40;;;;;;5053887;28;20124;-83
2022/03/18 11:37:07;;;;;;;1.08;0.63;;;16.30;89.90;;;;;;5037089;28;20063;-83
2022/03/18 11:39:33;;;;;;;0.38;0.38;;;16.20;89.70;;;;;;5037287;28;20047;-83
2022/03/18 11:42:05;;;;;;;0.20;0.10;;;16.20;88.70;;;;;;5036741;28;20057;-83
2022/03/18 11:44:38;;;;;;;1.27;0.90;;;16.30;90.00;;;;;;5054776;28;20057;-83
2022/03/18 11:47:33;;;;;;;0.43;0.10;;;16.40;89.00;;;;;;5036836;28;20045;-83
2022/03/18 11:50:02;;;;;;;2.10;0.40;;;16.50;89.50;;;;;;5053705;28;20053;-83
2022/03/18 11:52:28;;;;;;;0.25;0.25;;;16.70;90.40;;;;;;5054505;28;20088;-83
2022/03/18 11:55:06;;;;;;;1.00;0.38;;;16.80;88.50;;;;;;5053596;28;20531;-83
2022/03/18 11:57:34;;;;;;;0.00;0.00;;;16.70;85.50;;;;;;5053320;28;20044;-83
2022/03/18 12:00:05;;;;;;;0.00;0.00;;;16.90;87.40;;;;;;5036980;28;20064;-83
2022/03/18 12:02:36;;;;;;;0.00;0.00;;;16.80;85.70;;;;;;5053184;28;20080;-83
2022/03/18 12:05:03;;;;;;;0.10;0.10;;;16.80;85.10;;;;;;5036633;28;20058;-83
2022/03/18 12:07:34;;;;;;;0.08;0.08;;;16.80;85.10;;;;;;5053305;28;20136;-83
2022/03/18 12:10:00;;;;;;;0.00;0.00;;;16.70;84.60;;;;;;5053230;28;20080;-83
2022/03/18 12:12:43;;;;;;;0.00;0.00;;;16.70;84.20;;;;;;5036728;28;20079;-83
2022/03/18 12:15:12;;;;;;;0.00;0.00;;;16.80;83.10;;;;;;5036176;28;20045;-83
2022/03/18 12:17:47;;;;;;;0.20;0.20;;;16.90;81.80;;;;;;5036858;28;20053;-83
2022/03/18 12:20:25;;;;;;;7.05;0.82;;;17.20;84.10;;;;;;5052984;28;20595;-83
2022/03/18 12:22:52;;;;;;;30.63;1.80;;;16.90;81.80;;;;;;5036705;28;20508;-83
2022/03/18 12:25:20;;;;;;;0.00;0.00;;;16.90;81.40;;;;;;5036118;28;20044;-83
2022/03/18 12:27:46;;;;;;;0.75;0.75;;;17.30;82.80;;;;;;5052598;28;20439;-83
2022/03/18 12:30:17;;;;;;;0.10;0.10;;;17.60;82.70;;;;;;5052763;28;20050;-83
2022/03/18 12:32:56;;;;;;;0.20;0.20;;;18.00;81.30;;;;;;5052922;28;20140;-83
2022/03/18 12:35:30;;;;;;;1.17;0.47;;;18.00;78.70;;;;;;5053052;28;20053;-83
2022/03/18 12:38:05;;;;;;;0.08;0.08;;;18.10;78.80;;;;;;5052788;28;20488;-83
2022/03/18 12:40:31;;;;;;;;;;;18.10;76.80;;;;;;5036546;28;20041;-83
2022/03/18 12:42:58;;;;;;;0.00;0.00;;;18.60;79.60;;;;;;5052496;28;20058;-83
2022/03/18 12:45:39;;;;;;;0.10;0.10;;;18.50;76.40;;;;;;5036040;28;20053;-83
2022/03/18 12:48:09;;;;;;;4.78;1.00;;;18.60;76.80;;;;;;5052873;28;20049;-83
2022/03/18 12:50:35;;;;;;;4.43;1.00;;;18.50;76.00;;;;;;5052717;28;20051;-82
2022/03/18 12:53:09;;;;;;;0.00;0.00;;;18.40;74.70;;;;;;5052487;28;20481;-83
2022/03/18 12:55:35;;;;;;;0.00;0.00;;;17.90;74.20;;;;;;5036109;28;20049;-83
2022/03/18 12:58:01;;;;;;;1.17;0.45;;;17.50;74.20;;;;;;5052264;28;20481;-83
2022/03/18 13:00:27;;;;;;;0.00;0.00;;;17.20;74.20;;;;;;5052360;28;20048;-83
2022/03/18 13:02:53;;;;;;;0.10;0.10;;;16.80;73.40;;;;;;5052325;28;20163;-83
2022/03/18 13:05:19;;;;;;;0.00;0.00;;;16.70;73.30;;;;;;5035788;28;20065;-83
2022/03/18 13:07:46;;;;;;;0.10;0.10;;;17.10;74.70;;;;;;5052484;28;20063;-83
2022/03/18 13:10:20;;;;;;;0.47;0.47;;;17.00;72.90;;;;;;5052099;28;20547;-83
2022/03/18 13:12:46;;;;;;;0.00;0.00;;;17.20;74.00;;;;;;5053250;28;20127;-83
2022/03/18 13:15:17;;;;;;;0.00;0.00;;;17.30;71.20;;;;;;5056996;28;20076;-83